sensor_id;sensor_type;location;lat;lon;timestamp;pressure;altitude;pressure_sealevel;temperature;humidity
84855;BME280;75112;42.668;23.356;2024-02-16T00:00:16;95805.41;;;2.61;67.07
84855;BME280;75112;42.668;23.356;2024-02-16T00:02:42;95827.28;;;2.73;66.96
84855;BME280;75112;42.668;23.356;2024-02-16T00:05:09;95814.47;;;2.56;67.74
84855;BME280;75112;42.668;23.356;2024-02-16T00:07:37;95827.75;;;2.59;67.11
84855;BME280;75112;42.668;23.356;2024-02-16T00:10:03;95829.91;;;2.54;66.83
84855;BME280;75112;42.668;23.356;2024-02-16T00:12:33;95823.63;;;2.48;66.54
84855;BME280;75112;42.668;23.356;2024-02-16T00:14:59;95830.38;;;2.49;67.83
84855;BME280;75112;42.668;23.356;2024-02-16T00:17:26;95825.50;;;2.56;67.67
84855;BME280;75112;42.668;23.356;2024-02-16T00:19:54;95827.94;;;2.48;66.71
84855;BME280;75112;42.668;23.356;2024-02-16T00:22:20;95828.94;;;2.27;67.71
84855;BME280;75112;42.668;23.356;2024-02-16T00:24:46;95836.06;;;2.24;68.95
84855;BME280;75112;42.668;23.356;2024-02-16T00:27:11;95826.13;;;2.21;68.14
84855;BME280;75112;42.668;23.356;2024-02-16T00:29:37;95821.75;;;2.13;67.73
84855;BME280;75112;42.668;23.356;2024-02-16T00:32:04;95835.16;;;2.15;68.63
84855;BME280;75112;42.668;23.356;2024-02-16T00:34:31;95836.38;;;2.11;68.44
84855;BME280;75112;42.668;23.356;2024-02-16T00:36:57;95832.09;;;2.02;69.06
84855;BME280;75112;42.668;23.356;2024-02-16T00:39:23;95835.84;;;2.07;69.17
84855;BME280;75112;42.668;23.356;2024-02-16T00:41:50;95824.84;;;2.07;68.91
84855;BME280;75112;42.668;23.356;2024-02-16T00:44:18;95817.47;;;2.04;69.04
84855;BME280;75112;42.668;23.356;2024-02-16T00:46:44;95805.81;;;1.92;68.81
84855;BME280;75112;42.668;23.356;2024-02-16T00:49:10;95811.97;;;1.99;68.70
84855;BME280;75112;42.668;23.356;2024-02-16T00:51:40;95808.72;;;2.06;68.20
84855;BME280;75112;42.668;23.356;2024-02-16T00:54:06;95825.22;;;2.12;68.53
84855;BME280;75112;42.668;23.356;2024-02-16T00:56:32;95839.06;;;2.19;67.85
84855;BME280;75112;42.668;23.356;2024-02-16T00:58:58;95834.22;;;2.16;68.15
84855;BME280;75112;42.668;23.356;2024-02-16T01:01:23;95821.63;;;2.05;68.16
84855;BME280;75112;42.668;23.356;2024-02-16T01:03:53;95842.81;;;2.15;67.90
84855;BME280;75112;42.668;23.356;2024-02-16T01:06:19;95834.22;;;2.16;68.32
84855;BME280;75112;42.668;23.356;2024-02-16T01:08:45;95818.09;;;2.06;68.24
84855;BME280;75112;42.668;23.356;2024-02-16T01:11:12;95816.75;;;2.12;68.36
84855;BME280;75112;42.668;23.356;2024-02-16T01:13:37;95828.84;;;2.19;67.81
84855;BME280;75112;42.668;23.356;2024-02-16T01:16:03;95803.63;;;1.97;68.24
84855;BME280;75112;42.668;23.356;2024-02-16T01:18:29;95813.28;;;2.03;68.11
84855;BME280;75112;42.668;23.356;2024-02-16T01:20:54;95775.88;;;1.74;68.86
84855;BME280;75112;42.668;23.356;2024-02-16T01:23:21;95826.47;;;1.98;68.97
84855;BME280;75112;42.668;23.356;2024-02-16T01:25:46;95789.97;;;1.78;68.50
84855;BME280;75112;42.668;23.356;2024-02-16T01:28:12;95791.06;;;1.66;68.42
84855;BME280;75112;42.668;23.356;2024-02-16T01:30:38;95828.25;;;1.88;69.00
84855;BME280;75112;42.668;23.356;2024-02-16T01:33:04;95804.06;;;1.82;68.16
84855;BME280;75112;42.668;23.356;2024-02-16T01:35:31;95760.34;;;1.58;68.26
84855;BME280;75112;42.668;23.356;2024-02-16T01:37:57;95814.16;;;1.74;68.95
84855;BME280;75112;42.668;23.356;2024-02-16T01:40:22;95796.31;;;1.55;69.50
84855;BME280;75112;42.668;23.356;2024-02-16T01:42:51;95819.53;;;1.61;69.52
84855;BME280;75112;42.668;23.356;2024-02-16T01:45:18;95815.47;;;1.78;69.65
84855;BME280;75112;42.668;23.356;2024-02-16T01:47:44;95810.91;;;1.92;69.32
84855;BME280;75112;42.668;23.356;2024-02-16T01:50:15;95811.88;;;1.71;68.81
84855;BME280;75112;42.668;23.356;2024-02-16T01:52:42;95816.41;;;1.87;69.01
84855;BME280;75112;42.668;23.356;2024-02-16T01:55:08;95809.28;;;1.91;68.74
84855;BME280;75112;42.668;23.356;2024-02-16T01:57:39;95802.75;;;1.59;69.84
84855;BME280;75112;42.668;23.356;2024-02-16T02:00:05;95810.41;;;1.49;70.21
84855;BME280;75112;42.668;23.356;2024-02-16T02:02:36;95799.41;;;1.49;69.57
84855;BME280;75112;42.668;23.356;2024-02-16T02:05:03;95812.41;;;1.65;69.97
84855;BME280;75112;42.668;23.356;2024-02-16T02:07:29;95802.09;;;1.67;69.58
84855;BME280;75112;42.668;23.356;2024-02-16T02:09:55;95795.22;;;1.67;69.55
84855;BME280;75112;42.668;23.356;2024-02-16T02:12:21;95806.34;;;1.66;69.09
84855;BME280;75112;42.668;23.356;2024-02-16T02:14:47;95803.97;;;1.45;70.54
84855;BME280;75112;42.668;23.356;2024-02-16T02:17:13;95801.44;;;1.55;69.78
84855;BME280;75112;42.668;23.356;2024-02-16T02:19:38;95802.38;;;1.64;69.97
84855;BME280;75112;42.668;23.356;2024-02-16T02:22:04;95769.09;;;1.36;68.91
84855;BME280;75112;42.668;23.356;2024-02-16T02:24:29;95770.44;;;1.11;70.80
84855;BME280;75112;42.668;23.356;2024-02-16T02:26:55;95805.31;;;1.40;70.16
84855;BME280;75112;42.668;23.356;2024-02-16T02:29:20;95794.44;;;1.37;70.00
84855;BME280;75112;42.668;23.356;2024-02-16T02:31:45;95810.81;;;1.45;70.64
84855;BME280;75112;42.668;23.356;2024-02-16T02:34:11;95771.09;;;1.13;70.55
84855;BME280;75112;42.668;23.356;2024-02-16T02:36:37;95794.72;;;1.25;70.26
84855;BME280;75112;42.668;23.356;2024-02-16T02:39:02;95807.34;;;1.36;70.42
84855;BME280;75112;42.668;23.356;2024-02-16T02:41:28;95808.53;;;1.42;70.56
84855;BME280;75112;42.668;23.356;2024-02-16T02:43:53;95801.03;;;1.40;69.80
84855;BME280;75112;42.668;23.356;2024-02-16T02:46:19;95793.50;;;1.38;69.95
84855;BME280;75112;42.668;23.356;2024-02-16T02:48:45;95815.25;;;1.33;70.59
84855;BME280;75112;42.668;23.356;2024-02-16T02:51:11;95796.31;;;1.26;70.40
84855;BME280;75112;42.668;23.356;2024-02-16T02:53:37;95811.06;;;1.42;70.18
84855;BME280;75112;42.668;23.356;2024-02-16T02:56:03;95818.47;;;1.45;70.12
84855;BME280;75112;42.668;23.356;2024-02-16T02:58:29;95797.00;;;1.08;71.66
84855;BME280;75112;42.668;23.356;2024-02-16T03:00:54;95815.38;;;1.31;71.36
84855;BME280;75112;42.668;23.356;2024-02-16T03:03:20;95809.09;;;1.45;69.39
84855;BME280;75112;42.668;23.356;2024-02-16T03:05:46;95808.81;;;1.29;70.41
84855;BME280;75112;42.668;23.356;2024-02-16T03:08:12;95789.47;;;1.17;70.92
84855;BME280;75112;42.668;23.356;2024-02-16T03:10:37;95769.75;;;0.99;71.24
84855;BME280;75112;42.668;23.356;2024-02-16T03:13:04;95793.34;;;1.01;71.61
84855;BME280;75112;42.668;23.356;2024-02-16T03:15:32;95807.19;;;1.18;71.00
84855;BME280;75112;42.668;23.356;2024-02-16T03:17:58;95811.75;;;1.14;71.74
84855;BME280;75112;42.668;23.356;2024-02-16T03:20:24;95805.44;;;1.09;71.42
84855;BME280;75112;42.668;23.356;2024-02-16T03:22:51;95815.91;;;1.25;70.63
84855;BME280;75112;42.668;23.356;2024-02-16T03:25:16;95812.72;;;1.23;70.61
84855;BME280;75112;42.668;23.356;2024-02-16T03:27:42;95813.63;;;1.22;70.94
84855;BME280;75112;42.668;23.356;2024-02-16T03:30:08;95816.34;;;1.21;71.41
84855;BME280;75112;42.668;23.356;2024-02-16T03:32:34;95794.28;;;1.00;70.64
84855;BME280;75112;42.668;23.356;2024-02-16T03:34:59;95795.38;;;0.98;71.40
84855;BME280;75112;42.668;23.356;2024-02-16T03:37:25;95818.19;;;0.99;71.46
84855;BME280;75112;42.668;23.356;2024-02-16T03:39:51;95797.25;;;0.96;71.35
84855;BME280;75112;42.668;23.356;2024-02-16T03:42:16;95805.44;;;0.89;71.90
84855;BME280;75112;42.668;23.356;2024-02-16T03:44:45;95810.38;;;1.01;71.75
84855;BME280;75112;42.668;23.356;2024-02-16T03:47:11;95811.44;;;0.88;71.87
84855;BME280;75112;42.668;23.356;2024-02-16T03:49:37;95815.63;;;0.89;72.44
84855;BME280;75112;42.668;23.356;2024-02-16T03:52:03;95819.78;;;1.10;71.58
84855;BME280;75112;42.668;23.356;2024-02-16T03:54:28;95814.16;;;1.16;71.31
84855;BME280;75112;42.668;23.356;2024-02-16T03:56:54;95803.53;;;1.01;72.12
84855;BME280;75112;42.668;23.356;2024-02-16T03:59:20;95818.59;;;1.14;71.17
84855;BME280;75112;42.668;23.356;2024-02-16T04:01:45;95794.19;;;1.02;71.44
84855;BME280;75112;42.668;23.356;2024-02-16T04:04:11;95801.50;;;0.85;72.03
84855;BME280;75112;42.668;23.356;2024-02-16T04:06:37;95825.81;;;0.89;71.90
84855;BME280;75112;42.668;23.356;2024-02-16T04:09:03;95807.81;;;0.81;72.32
84855;BME280;75112;42.668;23.356;2024-02-16T04:11:31;95804.47;;;0.90;72.54
84855;BME280;75112;42.668;23.356;2024-02-16T04:13:57;95797.63;;;0.91;71.89
84855;BME280;75112;42.668;23.356;2024-02-16T04:16:22;95799.91;;;0.84;72.20
84855;BME280;75112;42.668;23.356;2024-02-16T04:18:50;95809.34;;;1.13;71.17
84855;BME280;75112;42.668;23.356;2024-02-16T04:21:15;95792.91;;;0.77;71.23
84855;BME280;75112;42.668;23.356;2024-02-16T04:23:41;95807.94;;;0.80;72.20
84855;BME280;75112;42.668;23.356;2024-02-16T04:26:06;95787.69;;;0.68;71.49
84855;BME280;75112;42.668;23.356;2024-02-16T04:28:32;95805.56;;;0.98;71.71
84855;BME280;75112;42.668;23.356;2024-02-16T04:30:57;95775.72;;;0.59;71.53
84855;BME280;75112;42.668;23.356;2024-02-16T04:33:23;95775.31;;;0.54;72.20
84855;BME280;75112;42.668;23.356;2024-02-16T04:35:49;95765.09;;;0.44;72.45
84855;BME280;75112;42.668;23.356;2024-02-16T04:38:16;95824.97;;;0.89;72.36
84855;BME280;75112;42.668;23.356;2024-02-16T04:40:41;95813.69;;;0.72;72.51
84855;BME280;75112;42.668;23.356;2024-02-16T04:43:06;95792.63;;;0.60;72.65
84855;BME280;75112;42.668;23.356;2024-02-16T04:45:32;95799.09;;;0.74;72.31
84855;BME280;75112;42.668;23.356;2024-02-16T04:48:03;95807.16;;;0.89;72.28
84855;BME280;75112;42.668;23.356;2024-02-16T04:50:28;95822.13;;;0.73;72.91
84855;BME280;75112;42.668;23.356;2024-02-16T04:52:54;95807.13;;;0.69;72.40
84855;BME280;75112;42.668;23.356;2024-02-16T04:55:19;95807.34;;;0.57;72.32
84855;BME280;75112;42.668;23.356;2024-02-16T04:57:44;95835.75;;;0.93;71.88
84855;BME280;75112;42.668;23.356;2024-02-16T05:00:11;95831.03;;;0.98;71.95
84855;BME280;75112;42.668;23.356;2024-02-16T05:02:36;95819.88;;;0.79;71.64
84855;BME280;75112;42.668;23.356;2024-02-16T05:05:02;95820.66;;;0.80;72.08
84855;BME280;75112;42.668;23.356;2024-02-16T05:07:28;95835.59;;;0.84;72.96
84855;BME280;75112;42.668;23.356;2024-02-16T05:09:54;95807.81;;;0.81;72.18
84855;BME280;75112;42.668;23.356;2024-02-16T05:12:23;95817.31;;;0.79;72.20
84855;BME280;75112;42.668;23.356;2024-02-16T05:14:50;95847.81;;;0.90;72.43
84855;BME280;75112;42.668;23.356;2024-02-16T05:17:19;95800.06;;;0.42;73.41
84855;BME280;75112;42.668;23.356;2024-02-16T05:19:45;95849.22;;;0.74;73.15
84855;BME280;75112;42.668;23.356;2024-02-16T05:22:10;95848.31;;;0.84;72.45
84855;BME280;75112;42.668;23.356;2024-02-16T05:24:36;95837.44;;;0.73;73.48
84855;BME280;75112;42.668;23.356;2024-02-16T05:27:02;95804.91;;;0.45;72.77
84855;BME280;75112;42.668;23.356;2024-02-16T05:32:56;95789.94;;;0.62;72.09
84855;BME280;75112;42.668;23.356;2024-02-16T05:35:24;95781.88;;;0.57;71.85
84855;BME280;75112;42.668;23.356;2024-02-16T05:37:52;95839.09;;;0.93;71.93
84855;BME280;75112;42.668;23.356;2024-02-16T05:40:18;95863.41;;;1.17;71.56
84855;BME280;75112;42.668;23.356;2024-02-16T05:42:46;95856.69;;;0.96;71.79
84855;BME280;75112;42.668;23.356;2024-02-16T05:45:13;95851.94;;;0.82;72.10
84855;BME280;75112;42.668;23.356;2024-02-16T05:47:38;95842.44;;;0.94;72.54
84855;BME280;75112;42.668;23.356;2024-02-16T05:50:04;95874.81;;;1.12;72.86
84855;BME280;75112;42.668;23.356;2024-02-16T05:52:31;95849.16;;;1.04;72.30
84855;BME280;75112;42.668;23.356;2024-02-16T05:54:57;95861.97;;;1.43;70.87
84855;BME280;75112;42.668;23.356;2024-02-16T05:57:22;95874.81;;;2.00;69.83
84855;BME280;75112;42.668;23.356;2024-02-16T05:59:49;95850.91;;;2.11;67.30
84855;BME280;75112;42.668;23.356;2024-02-16T06:02:15;95870.50;;;2.20;67.29
84855;BME280;75112;42.668;23.356;2024-02-16T06:04:41;95868.59;;;2.32;67.87
84855;BME280;75112;42.668;23.356;2024-02-16T06:07:07;95857.03;;;2.92;66.02
84855;BME280;75112;42.668;23.356;2024-02-16T06:09:33;95874.16;;;3.55;64.16
84855;BME280;75112;42.668;23.356;2024-02-16T06:12:01;95880.50;;;4.57;60.58
84855;BME280;75112;42.668;23.356;2024-02-16T06:14:29;95863.53;;;4.98;58.42
84855;BME280;75112;42.668;23.356;2024-02-16T06:16:55;95875.78;;;6.04;55.92
84855;BME280;75112;42.668;23.356;2024-02-16T06:19:20;95871.91;;;6.08;55.23
84855;BME280;75112;42.668;23.356;2024-02-16T06:21:46;95882.00;;;6.18;54.75
84855;BME280;75112;42.668;23.356;2024-02-16T06:24:11;95867.91;;;5.97;53.86
84855;BME280;75112;42.668;23.356;2024-02-16T06:26:36;95870.44;;;6.47;53.37
84855;BME280;75112;42.668;23.356;2024-02-16T06:29:02;95876.56;;;6.93;52.84
84855;BME280;75112;42.668;23.356;2024-02-16T06:31:27;95874.84;;;8.32;50.18
84855;BME280;75112;42.668;23.356;2024-02-16T06:33:52;95868.75;;;8.47;48.73
84855;BME280;75112;42.668;23.356;2024-02-16T06:36:18;95865.31;;;8.85;47.16
84855;BME280;75112;42.668;23.356;2024-02-16T06:38:43;95865.22;;;8.63;45.79
84855;BME280;75112;42.668;23.356;2024-02-16T06:41:09;95874.72;;;8.25;48.22
84855;BME280;75112;42.668;23.356;2024-02-16T06:43:35;95874.50;;;7.97;48.38
84855;BME280;75112;42.668;23.356;2024-02-16T06:46:00;95870.00;;;8.51;47.55
84855;BME280;75112;42.668;23.356;2024-02-16T06:48:26;95861.72;;;9.15;44.89
84855;BME280;75112;42.668;23.356;2024-02-16T06:50:51;95871.19;;;8.64;46.27
84855;BME280;75112;42.668;23.356;2024-02-16T06:53:17;95864.63;;;9.27;45.04
84855;BME280;75112;42.668;23.356;2024-02-16T06:55:42;95859.56;;;9.19;45.06
84855;BME280;75112;42.668;23.356;2024-02-16T06:58:08;95867.44;;;8.51;48.11
84855;BME280;75112;42.668;23.356;2024-02-16T07:00:33;95870.19;;;8.80;46.30
84855;BME280;75112;42.668;23.356;2024-02-16T07:03:00;95870.78;;;10.62;42.79
84855;BME280;75112;42.668;23.356;2024-02-16T07:05:26;95855.88;;;11.66;40.74
84855;BME280;75112;42.668;23.356;2024-02-16T07:07:53;95852.91;;;13.72;36.08
84855;BME280;75112;42.668;23.356;2024-02-16T07:10:19;95861.31;;;13.74;35.34
84855;BME280;75112;42.668;23.356;2024-02-16T07:12:44;95871.06;;;13.86;34.68
84855;BME280;75112;42.668;23.356;2024-02-16T07:15:10;95867.13;;;14.01;34.20
84855;BME280;75112;42.668;23.356;2024-02-16T07:17:37;95850.25;;;13.86;34.93
84855;BME280;75112;42.668;23.356;2024-02-16T07:20:03;95862.38;;;14.23;33.60
84855;BME280;75112;42.668;23.356;2024-02-16T07:22:30;95859.50;;;14.32;32.95
84855;BME280;75112;42.668;23.356;2024-02-16T07:24:56;95855.81;;;15.19;33.21
84855;BME280;75112;42.668;23.356;2024-02-16T07:27:21;95857.56;;;13.25;35.44
84855;BME280;75112;42.668;23.356;2024-02-16T07:29:47;95864.50;;;12.66;37.94
84855;BME280;75112;42.668;23.356;2024-02-16T07:32:12;95850.78;;;14.19;34.19
84855;BME280;75112;42.668;23.356;2024-02-16T07:34:38;95847.72;;;14.72;34.04
84855;BME280;75112;42.668;23.356;2024-02-16T07:37:03;95853.41;;;14.13;34.33
84855;BME280;75112;42.668;23.356;2024-02-16T07:39:29;95849.75;;;13.64;35.53
84855;BME280;75112;42.668;23.356;2024-02-16T07:41:55;95860.94;;;12.48;36.29
84855;BME280;75112;42.668;23.356;2024-02-16T07:44:21;95870.28;;;12.62;36.67
84855;BME280;75112;42.668;23.356;2024-02-16T07:46:46;95846.09;;;14.28;33.58
84855;BME280;75112;42.668;23.356;2024-02-16T07:49:12;95853.03;;;14.84;33.21
84855;BME280;75112;42.668;23.356;2024-02-16T07:51:39;95860.31;;;13.24;35.85
84855;BME280;75112;42.668;23.356;2024-02-16T07:54:06;95868.44;;;11.63;39.01
84855;BME280;75112;42.668;23.356;2024-02-16T07:56:31;95870.19;;;11.42;41.28
84855;BME280;75112;42.668;23.356;2024-02-16T07:58:57;95865.44;;;11.66;38.93
84855;BME280;75112;42.668;23.356;2024-02-16T08:01:22;95873.41;;;10.96;42.06
84855;BME280;75112;42.668;23.356;2024-02-16T08:03:47;95857.34;;;10.79;41.43
84855;BME280;75112;42.668;23.356;2024-02-16T08:06:13;95871.44;;;10.35;42.48
84855;BME280;75112;42.668;23.356;2024-02-16T08:08:39;95870.00;;;10.11;44.28
84855;BME280;75112;42.668;23.356;2024-02-16T08:11:04;95871.75;;;9.83;44.45
84855;BME280;75112;42.668;23.356;2024-02-16T08:13:30;95859.59;;;10.54;43.09
84855;BME280;75112;42.668;23.356;2024-02-16T08:15:55;95857.00;;;10.89;42.12
84855;BME280;75112;42.668;23.356;2024-02-16T08:18:21;95867.38;;;10.89;42.63
84855;BME280;75112;42.668;23.356;2024-02-16T08:20:47;95869.41;;;9.88;43.80
84855;BME280;75112;42.668;23.356;2024-02-16T08:23:13;95861.34;;;9.55;44.09
84855;BME280;75112;42.668;23.356;2024-02-16T08:25:38;95852.72;;;9.90;44.30
84855;BME280;75112;42.668;23.356;2024-02-16T08:28:04;95871.56;;;10.55;43.18
84855;BME280;75112;42.668;23.356;2024-02-16T08:30:30;95871.34;;;10.85;42.41
84855;BME280;75112;42.668;23.356;2024-02-16T08:32:55;95865.53;;;10.83;42.28
84855;BME280;75112;42.668;23.356;2024-02-16T08:35:21;95863.28;;;10.39;43.49
84855;BME280;75112;42.668;23.356;2024-02-16T08:37:46;95877.63;;;10.69;43.72
84855;BME280;75112;42.668;23.356;2024-02-16T08:40:12;95867.75;;;10.86;43.35
84855;BME280;75112;42.668;23.356;2024-02-16T08:42:40;95852.94;;;10.17;44.70
84855;BME280;75112;42.668;23.356;2024-02-16T08:45:07;95873.53;;;10.25;45.57
84855;BME280;75112;42.668;23.356;2024-02-16T08:47:33;95854.63;;;10.88;44.16
84855;BME280;75112;42.668;23.356;2024-02-16T08:49:58;95861.84;;;10.64;44.17
84855;BME280;75112;42.668;23.356;2024-02-16T08:52:24;95875.41;;;11.07;44.43
84855;BME280;75112;42.668;23.356;2024-02-16T08:54:49;95856.50;;;11.14;42.43
84855;BME280;75112;42.668;23.356;2024-02-16T08:57:15;95874.88;;;11.19;44.00
84855;BME280;75112;42.668;23.356;2024-02-16T08:59:40;95866.91;;;10.79;42.79
84855;BME280;75112;42.668;23.356;2024-02-16T09:02:06;95857.19;;;10.81;44.39
84855;BME280;75112;42.668;23.356;2024-02-16T09:04:31;95863.13;;;11.23;43.76
84855;BME280;75112;42.668;23.356;2024-02-16T09:06:57;95869.22;;;11.63;41.96
84855;BME280;75112;42.668;23.356;2024-02-16T09:09:22;95868.06;;;11.79;41.37
84855;BME280;75112;42.668;23.356;2024-02-16T09:11:48;95866.31;;;11.93;41.38
84855;BME280;75112;42.668;23.356;2024-02-16T09:14:13;95843.28;;;11.43;40.61
84855;BME280;75112;42.668;23.356;2024-02-16T09:16:39;95873.31;;;11.99;41.12
84855;BME280;75112;42.668;23.356;2024-02-16T09:19:04;95857.31;;;12.62;40.87
84855;BME280;75112;42.668;23.356;2024-02-16T09:21:29;95871.22;;;12.94;37.25
84855;BME280;75112;42.668;23.356;2024-02-16T09:23:55;95868.13;;;11.18;40.72
84855;BME280;75112;42.668;23.356;2024-02-16T09:26:26;95865.84;;;11.63;40.70
84855;BME280;75112;42.668;23.356;2024-02-16T09:28:55;95875.31;;;12.04;38.63
84855;BME280;75112;42.668;23.356;2024-02-16T09:31:21;95877.25;;;11.82;40.21
84855;BME280;75112;42.668;23.356;2024-02-16T09:33:46;95867.72;;;12.09;38.53
84855;BME280;75112;42.668;23.356;2024-02-16T09:36:11;95861.00;;;11.40;40.73
84855;BME280;75112;42.668;23.356;2024-02-16T09:38:37;95872.34;;;12.20;39.59
84855;BME280;75112;42.668;23.356;2024-02-16T09:41:03;95858.09;;;11.76;37.96
84855;BME280;75112;42.668;23.356;2024-02-16T09:43:30;95867.94;;;12.14;38.47
84855;BME280;75112;42.668;23.356;2024-02-16T09:45:57;95866.94;;;12.48;38.57
84855;BME280;75112;42.668;23.356;2024-02-16T09:48:25;95873.81;;;13.01;37.87
84855;BME280;75112;42.668;23.356;2024-02-16T09:50:53;95866.06;;;12.87;36.89
84855;BME280;75112;42.668;23.356;2024-02-16T09:53:20;95859.06;;;12.88;36.94
84855;BME280;75112;42.668;23.356;2024-02-16T09:55:49;95847.66;;;12.89;36.22
84855;BME280;75112;42.668;23.356;2024-02-16T09:58:17;95869.97;;;13.10;36.75
84855;BME280;75112;42.668;23.356;2024-02-16T10:03:28;95856.91;;;12.65;37.61
84855;BME280;75112;42.668;23.356;2024-02-16T10:06:08;95851.84;;;12.97;36.15
84855;BME280;75112;42.668;23.356;2024-02-16T10:08:34;95850.56;;;12.41;36.89
84855;BME280;75112;42.668;23.356;2024-02-16T10:11:06;95842.66;;;12.94;37.48
84855;BME280;75112;42.668;23.356;2024-02-16T10:13:33;95834.53;;;13.67;35.46
84855;BME280;75112;42.668;23.356;2024-02-16T10:16:09;95826.41;;;13.12;36.35
84855;BME280;75112;42.668;23.356;2024-02-16T10:18:38;95823.44;;;13.47;35.35
84855;BME280;75112;42.668;23.356;2024-02-16T10:21:04;95827.53;;;14.43;35.09
84855;BME280;75112;42.668;23.356;2024-02-16T10:23:30;95834.31;;;14.25;34.73
84855;BME280;75112;42.668;23.356;2024-02-16T10:25:57;95835.22;;;14.38;34.77
84855;BME280;75112;42.668;23.356;2024-02-16T10:28:24;95820.75;;;14.42;34.11
84855;BME280;75112;42.668;23.356;2024-02-16T10:30:57;95821.56;;;14.17;33.55
84855;BME280;75112;42.668;23.356;2024-02-16T10:33:29;95818.53;;;14.20;35.19
84855;BME280;75112;42.668;23.356;2024-02-16T10:35:56;95820.47;;;13.75;34.85
84855;BME280;75112;42.668;23.356;2024-02-16T10:38:23;95807.16;;;13.26;34.08
84855;BME280;75112;42.668;23.356;2024-02-16T10:40:51;95811.69;;;13.69;35.16
84855;BME280;75112;42.668;23.356;2024-02-16T10:43:17;95809.41;;;14.11;33.17
84855;BME280;75112;42.668;23.356;2024-02-16T10:45:43;95807.44;;;14.32;33.31
84855;BME280;75112;42.668;23.356;2024-02-16T10:48:10;95796.91;;;14.63;33.59
84855;BME280;75112;42.668;23.356;2024-02-16T10:50:36;95798.41;;;15.08;33.07
84855;BME280;75112;42.668;23.356;2024-02-16T10:53:22;95801.97;;;14.95;33.69
84855;BME280;75112;42.668;23.356;2024-02-16T10:55:49;95802.13;;;15.00;33.72
84855;BME280;75112;42.668;23.356;2024-02-16T10:58:17;95799.22;;;14.90;32.62
84855;BME280;75112;42.668;23.356;2024-02-16T11:00:50;95783.00;;;14.51;32.86
84855;BME280;75112;42.668;23.356;2024-02-16T11:03:17;95796.47;;;14.85;33.38
84855;BME280;75112;42.668;23.356;2024-02-16T11:05:43;95789.22;;;15.35;32.84
84855;BME280;75112;42.668;23.356;2024-02-16T11:08:15;95793.38;;;16.08;32.33
84855;BME280;75112;42.668;23.356;2024-02-16T11:10:41;95783.94;;;16.66;31.70
84855;BME280;75112;42.668;23.356;2024-02-16T11:13:06;95782.25;;;16.25;30.65
84855;BME280;75112;42.668;23.356;2024-02-16T11:15:34;95775.09;;;15.43;32.02
84855;BME280;75112;42.668;23.356;2024-02-16T11:18:03;95773.50;;;15.12;32.63
84855;BME280;75112;42.668;23.356;2024-02-16T11:20:36;95771.81;;;15.59;32.55
84855;BME280;75112;42.668;23.356;2024-02-16T11:23:08;95771.22;;;16.46;30.85
84855;BME280;75112;42.668;23.356;2024-02-16T11:25:34;95781.34;;;15.24;32.15
84855;BME280;75112;42.668;23.356;2024-02-16T11:28:01;95765.66;;;15.42;31.60
84855;BME280;75112;42.668;23.356;2024-02-16T11:30:28;95763.66;;;15.56;31.78
84855;BME280;75112;42.668;23.356;2024-02-16T11:32:53;95753.50;;;14.57;33.36
84855;BME280;75112;42.668;23.356;2024-02-16T11:35:18;95748.56;;;15.16;31.89
84855;BME280;75112;42.668;23.356;2024-02-16T11:37:44;95762.75;;;15.62;33.07
84855;BME280;75112;42.668;23.356;2024-02-16T11:40:12;95761.69;;;15.93;32.44
84855;BME280;75112;42.668;23.356;2024-02-16T11:42:38;95752.03;;;16.41;30.99
84855;BME280;75112;42.668;23.356;2024-02-16T11:45:04;95760.09;;;16.39;31.67
84855;BME280;75112;42.668;23.356;2024-02-16T11:47:30;95760.19;;;15.32;32.75
84855;BME280;75112;42.668;23.356;2024-02-16T11:50:08;95753.53;;;16.13;30.55
84855;BME280;75112;42.668;23.356;2024-02-16T11:52:40;95758.63;;;13.52;35.63
84855;BME280;75112;42.668;23.356;2024-02-16T11:55:10;95751.88;;;14.38;34.06
84855;BME280;75112;42.668;23.356;2024-02-16T11:57:37;95750.94;;;14.50;33.83
84855;BME280;75112;42.668;23.356;2024-02-16T12:00:03;95755.66;;;15.39;33.14
84855;BME280;75112;42.668;23.356;2024-02-16T12:02:34;95741.94;;;15.97;31.38
84855;BME280;75112;42.668;23.356;2024-02-16T12:05:00;95740.13;;;16.33;32.40
84855;BME280;75112;42.668;23.356;2024-02-16T12:07:26;95740.25;;;15.91;31.69
84855;BME280;75112;42.668;23.356;2024-02-16T12:09:59;95734.28;;;15.49;32.96
84855;BME280;75112;42.668;23.356;2024-02-16T12:12:25;95725.75;;;15.11;32.47
84855;BME280;75112;42.668;23.356;2024-02-16T12:14:52;95739.66;;;15.05;33.03
84855;BME280;75112;42.668;23.356;2024-02-16T12:17:18;95737.28;;;15.04;33.38
84855;BME280;75112;42.668;23.356;2024-02-16T12:19:44;95728.16;;;15.55;31.71
84855;BME280;75112;42.668;23.356;2024-02-16T12:22:10;95740.09;;;13.92;33.76
84855;BME280;75112;42.668;23.356;2024-02-16T12:24:36;95730.53;;;14.47;33.92
84855;BME280;75112;42.668;23.356;2024-02-16T12:27:02;95726.28;;;16.09;31.17
84855;BME280;75112;42.668;23.356;2024-02-16T12:29:27;95715.81;;;16.44;30.46
84855;BME280;75112;42.668;23.356;2024-02-16T12:31:53;95710.41;;;14.18;33.94
84855;BME280;75112;42.668;23.356;2024-02-16T12:34:18;95698.72;;;14.94;33.21
84855;BME280;75112;42.668;23.356;2024-02-16T12:36:44;95710.69;;;15.13;33.68
84855;BME280;75112;42.668;23.356;2024-02-16T12:39:10;95711.97;;;15.88;32.19
84855;BME280;75112;42.668;23.356;2024-02-16T12:41:38;95716.53;;;15.93;31.52
84855;BME280;75112;42.668;23.356;2024-02-16T12:44:04;95717.97;;;15.23;33.73
84855;BME280;75112;42.668;23.356;2024-02-16T12:46:31;95700.84;;;15.69;32.88
84855;BME280;75112;42.668;23.356;2024-02-16T12:48:56;95709.94;;;15.78;32.31
84855;BME280;75112;42.668;23.356;2024-02-16T12:51:22;95713.75;;;16.34;30.93
84855;BME280;75112;42.668;23.356;2024-02-16T12:53:48;95700.28;;;16.02;32.62
84855;BME280;75112;42.668;23.356;2024-02-16T12:56:13;95711.91;;;16.47;32.29